Time;durP1;ratioP1;P1;durP2;ratioP2;P2;SDS_P1;SDS_P2;PMS_P1;PMS_P2;Temp;Humidity;BMP_temperature;BMP_pressure;BME280_temperature;BME280_humidity;BME280_pressure;Samples;Min_cycle;Max_cycle;Signal;HPM_P1;HPM_P2
2020/12/30 00:02:16;;;;;;;2.07;1.23;;;16.40;28.50;;;;;;5096677;28;20620;-60
2020/12/30 00:04:42;;;;;;;1.90;1.27;;;16.40;28.50;;;;;;5114986;28;20403;-60
2020/12/30 00:07:07;;;;;;;1.50;1.40;;;16.40;28.60;;;;;;5114273;28;20157;-60
2020/12/30 00:09:33;;;;;;;2.60;1.43;;;16.40;28.50;;;;;;5114705;28;20237;-60
2020/12/30 00:11:58;;;;;;;1.43;1.30;;;16.40;28.50;;;;;;5096146;28;20682;-60
2020/12/30 00:14:24;;;;;;;2.93;1.30;;;16.40;28.50;;;;;;5114847;28;20162;-60
2020/12/30 00:16:53;;;;;;;1.27;1.13;;;16.40;28.50;;;;;;5114560;28;20219;-59
2020/12/30 00:19:21;;;;;;;2.28;1.20;;;16.40;28.50;;;;;;5114634;28;20192;-60
2020/12/30 00:21:47;;;;;;;2.20;1.58;;;16.40;28.50;;;;;;5114361;28;20256;-60
2020/12/30 00:24:13;;;;;;;1.53;1.40;;;16.40;28.50;;;;;;5114031;28;20168;-60
2020/12/30 00:26:38;;;;;;;1.40;1.27;;;16.40;28.50;;;;;;5114387;28;20166;-60
2020/12/30 00:29:04;;;;;;;1.27;1.17;;;16.40;28.50;;;;;;5114204;28;20594;-60
2020/12/30 00:31:30;;;;;;;2.83;1.70;;;16.40;28.50;;;;;;5114219;28;20522;-60
2020/12/30 00:33:56;;;;;;;2.13;1.77;;;16.40;28.50;;;;;;5096199;28;20430;-60
2020/12/30 00:36:22;;;;;;;1.73;1.30;;;16.40;28.50;;;;;;5114132;28;20446;-60
2020/12/30 00:38:47;;;;;;;1.60;1.23;;;16.40;28.50;;;;;;5130161;27;20165;-60
2020/12/30 00:41:14;;;;;;;1.43;1.10;;;16.40;28.50;;;;;;5114401;28;20403;-60
2020/12/30 00:43:41;;;;;;;2.42;1.77;;;16.40;28.50;;;;;;5114272;28;20286;-60
2020/12/30 00:46:19;;;;;;;1.60;1.50;;;16.40;28.60;;;;;;5114359;28;20157;-60
2020/12/30 00:48:44;;;;;;;2.25;1.83;;;16.40;28.60;;;;;;5114166;28;20172;-60
2020/12/30 00:51:14;;;;;;;1.90;1.47;;;16.40;28.50;;;;;;5114065;28;20189;-60
2020/12/30 00:53:40;;;;;;;1.35;1.25;;;16.40;28.60;;;;;;5113833;28;20511;-60
2020/12/30 00:56:10;;;;;;;1.20;1.10;;;16.40;28.50;;;;;;5113990;28;20212;-60
2020/12/30 00:58:36;;;;;;;1.65;1.35;;;16.40;28.50;;;;;;5113971;28;20292;-60
2020/12/30 01:01:07;;;;;;;1.65;1.48;;;16.40;28.60;;;;;;5114328;28;20177;-60
2020/12/30 01:03:33;;;;;;;1.85;1.38;;;16.30;28.50;;;;;;5114093;28;20150;-60
2020/12/30 01:05:59;;;;;;;1.85;1.52;;;16.40;28.60;;;;;;5113920;28;20578;-59
2020/12/30 01:08:26;;;;;;;1.27;1.10;;;16.40;28.60;;;;;;5113325;28;20162;-60
2020/12/30 01:10:52;;;;;;;3.03;1.83;;;16.40;28.60;;;;;;5117440;28;20699;-60
2020/12/30 01:13:17;;;;;;;1.10;1.02;;;16.40;28.60;;;;;;5118189;28;20170;-59
2020/12/30 01:15:43;;;;;;;1.80;1.40;;;16.40;28.60;;;;;;5118054;28;20295;-59
2020/12/30 01:18:09;;;;;;;1.35;1.25;;;16.40;28.60;;;;;;5118101;28;20228;-60
2020/12/30 01:20:35;;;;;;;1.37;1.10;;;16.40;28.60;;;;;;5118014;28;20180;-59
2020/12/30 01:23:00;;;;;;;2.13;1.00;;;16.40;28.60;;;;;;5117489;28;20608;-60
2020/12/30 01:25:27;;;;;;;1.40;1.30;;;16.40;28.60;;;;;;5118194;28;20165;-60
2020/12/30 01:27:53;;;;;;;1.02;0.93;;;16.40;28.60;;;;;;5117983;28;20165;-60
2020/12/30 01:30:18;;;;;;;2.17;1.50;;;16.30;28.50;;;;;;5117771;28;20176;-59
2020/12/30 01:32:44;;;;;;;1.50;1.40;;;16.40;28.60;;;;;;5117793;28;20153;-60
2020/12/30 01:35:10;;;;;;;1.10;1.00;;;16.40;28.60;;;;;;5117640;28;20632;-60
2020/12/30 01:37:36;;;;;;;2.33;1.30;;;16.30;28.50;;;;;;5117265;28;20173;-60
2020/12/30 01:40:03;;;;;;;1.67;1.27;;;16.30;28.50;;;;;;5117880;28;20161;-60
2020/12/30 01:42:38;;;;;;;1.00;0.90;;;16.30;28.50;;;;;;5099458;28;20638;-60
2020/12/30 01:45:04;;;;;;;1.38;1.25;;;16.40;28.60;;;;;;5117571;28;20235;-60
2020/12/30 01:47:30;;;;;;;1.90;1.40;;;16.30;28.60;;;;;;5099104;28;20719;-60
2020/12/30 01:49:55;;;;;;;1.50;1.40;;;16.30;28.50;;;;;;5117241;28;20256;-60
2020/12/30 01:52:21;;;;;;;2.10;1.20;;;16.30;28.60;;;;;;5116888;28;20161;-60
2020/12/30 01:54:47;;;;;;;1.57;1.37;;;16.30;28.60;;;;;;5117454;28;20165;-59
2020/12/30 01:57:13;;;;;;;1.03;0.83;;;16.30;28.60;;;;;;5117436;28;20244;-60
2020/12/30 01:59:39;;;;;;;2.47;1.33;;;16.30;28.60;;;;;;5117277;28;20244;-60
2020/12/30 02:02:06;;;;;;;1.33;1.23;;;16.30;28.60;;;;;;5117207;28;20640;-60
2020/12/30 02:04:45;;;;;;;2.17;1.17;;;16.30;28.60;;;;;;5117098;28;20677;-60
2020/12/30 02:07:10;;;;;;;2.80;1.52;;;16.30;28.60;;;;;;5116590;28;20166;-60
2020/12/30 02:09:39;;;;;;;1.37;1.27;;;16.30;29.10;;;;;;5117071;28;20153;-60
2020/12/30 02:12:06;;;;;;;1.55;1.42;;;16.30;28.60;;;;;;5117012;28;20185;-60
2020/12/30 02:14:32;;;;;;;1.30;1.20;;;16.30;28.60;;;;;;5116891;28;20149;-59
2020/12/30 02:16:57;;;;;;;1.90;1.33;;;16.30;28.60;;;;;;5116699;28;20185;-60
2020/12/30 02:19:26;;;;;;;2.27;1.30;;;16.30;28.60;;;;;;5117008;28;20236;-60
2020/12/30 02:21:55;;;;;;;1.23;1.13;;;16.30;28.60;;;;;;5116289;28;20195;-60
2020/12/30 02:24:27;;;;;;;1.13;1.02;;;16.30;28.60;;;;;;5116870;28;20157;-59
2020/12/30 02:26:54;;;;;;;1.42;1.33;;;16.30;28.60;;;;;;5116775;28;20157;-60
2020/12/30 02:29:20;;;;;;;1.75;1.10;;;16.30;28.60;;;;;;5116557;28;20187;-59
2020/12/30 02:31:45;;;;;;;1.50;1.40;;;16.30;28.60;;;;;;5116617;28;20192;-59
2020/12/30 02:34:11;;;;;;;1.50;1.40;;;16.30;28.60;;;;;;5098268;28;20426;-59
2020/12/30 02:36:36;;;;;;;1.60;1.40;;;16.30;28.60;;;;;;5116670;28;20196;-60
2020/12/30 02:39:03;;;;;;;3.10;1.87;;;16.30;28.50;;;;;;5097647;28;20173;-60
2020/12/30 02:41:29;;;;;;;1.70;1.50;;;16.30;28.50;;;;;;5116678;28;20164;-60
2020/12/30 02:43:54;;;;;;;1.70;1.20;;;16.30;28.60;;;;;;5116234;28;20157;-60
2020/12/30 02:46:20;;;;;;;1.37;1.27;;;16.30;28.60;;;;;;5116372;28;20196;-60
2020/12/30 02:48:46;;;;;;;2.57;1.63;;;16.30;28.60;;;;;;5116213;28;20442;-60
2020/12/30 02:51:11;;;;;;;1.60;1.17;;;16.30;28.60;;;;;;5098213;28;20181;-60
2020/12/30 02:53:37;;;;;;;1.70;1.33;;;16.30;28.50;;;;;;5116084;28;20685;-60
2020/12/30 02:56:03;;;;;;;1.10;1.00;;;16.30;28.60;;;;;;5116120;28;20185;-60
2020/12/30 02:58:28;;;;;;;1.23;0.90;;;16.30;28.60;;;;;;5115896;28;20252;-60
2020/12/30 03:00:54;;;;;;;1.63;1.37;;;16.30;28.60;;;;;;5116191;28;20161;-59
2020/12/30 03:03:24;;;;;;;1.13;1.00;;;16.30;28.60;;;;;;5116150;28;20607;-60
2020/12/30 03:05:50;;;;;;;1.75;0.98;;;16.30;28.60;;;;;;5115966;28;20188;-60
2020/12/30 03:08:16;;;;;;;1.30;1.20;;;16.30;28.60;;;;;;5115559;28;20206;-60
2020/12/30 03:10:42;;;;;;;1.67;1.20;;;16.30;28.60;;;;;;5115719;28;20221;-60
2020/12/30 03:13:08;;;;;;;1.20;1.10;;;16.30;28.60;;;;;;5115743;28;20665;-60
2020/12/30 03:15:33;;;;;;;1.07;0.97;;;16.30;28.60;;;;;;5115612;28;20276;-60
2020/12/30 03:17:59;;;;;;;1.17;1.07;;;16.30;28.60;;;;;;5115564;28;20274;-59
2020/12/30 03:20:24;;;;;;;1.53;1.00;;;16.30;28.60;;;;;;5115802;28;20164;-60
2020/12/30 03:22:50;;;;;;;1.47;1.17;;;16.30;28.60;;;;;;5115475;28;20233;-59
2020/12/30 03:25:16;;;;;;;1.33;1.20;;;16.30;28.60;;;;;;5097397;28;20172;-60
2020/12/30 03:27:41;;;;;;;1.40;1.30;;;16.30;28.60;;;;;;5115309;28;20163;-60
2020/12/30 03:30:07;;;;;;;1.90;1.10;;;16.30;28.60;;;;;;5115285;28;20157;-60
2020/12/30 03:32:32;;;;;;;1.27;1.17;;;16.30;28.60;;;;;;5114622;28;20534;-60
2020/12/30 03:34:58;;;;;;;1.50;1.40;;;16.30;28.60;;;;;;5115547;28;20258;-60
2020/12/30 03:37:24;;;;;;;1.47;1.20;;;16.30;28.60;;;;;;5114862;28;20225;-60
2020/12/30 03:39:50;;;;;;;1.43;1.23;;;16.30;28.60;;;;;;5115664;28;20153;-60
2020/12/30 03:42:16;;;;;;;1.55;1.45;;;16.30;28.60;;;;;;5115011;28;20153;-60
2020/12/30 03:44:41;;;;;;;1.92;1.55;;;16.30;28.60;;;;;;5115300;28;20185;-60
2020/12/30 03:47:07;;;;;;;1.40;1.30;;;16.40;28.60;;;;;;5115071;28;20191;-60
2020/12/30 03:49:33;;;;;;;1.50;1.20;;;16.30;28.60;;;;;;5096941;28;20211;-60
2020/12/30 03:52:00;;;;;;;1.23;1.10;;;16.30;28.60;;;;;;5114550;28;20256;-60
2020/12/30 03:54:29;;;;;;;0.95;0.95;;;16.30;28.60;;;;;;5097115;28;20154;-60
2020/12/30 03:56:55;;;;;;;1.65;1.30;;;16.30;28.60;;;;;;5114926;28;20185;-60
2020/12/30 03:59:20;;;;;;;1.30;1.10;;;16.30;28.60;;;;;;5114789;28;20254;-59
2020/12/30 04:01:46;;;;;;;1.50;1.40;;;16.30;28.60;;;;;;5114847;28;20244;-60
2020/12/30 04:04:15;;;;;;;1.40;1.30;;;16.30;28.60;;;;;;5114637;28;20232;-59
2020/12/30 04:06:41;;;;;;;1.80;1.20;;;16.30;28.60;;;;;;5115191;28;20173;-59
2020/12/30 04:09:07;;;;;;;1.27;1.10;;;16.30;28.60;;;;;;5114095;28;20157;-59
2020/12/30 04:11:33;;;;;;;1.13;1.02;;;16.30;28.60;;;;;;5114709;28;20489;-59
2020/12/30 04:13:59;;;;;;;1.17;1.07;;;16.30;28.60;;;;;;5114697;28;20639;-59
2020/12/30 04:16:25;;;;;;;1.67;1.17;;;16.30;28.60;;;;;;5096309;28;20189;-59
2020/12/30 04:18:51;;;;;;;1.23;1.13;;;16.30;28.60;;;;;;5114660;28;20504;-59
2020/12/30 04:21:24;;;;;;;1.67;1.45;;;16.30;28.60;;;;;;5114536;28;20173;-59
2020/12/30 04:23:51;;;;;;;1.50;1.20;;;16.30;28.60;;;;;;5114198;28;20234;-59
2020/12/30 04:26:18;;;;;;;1.20;1.10;;;16.30;28.60;;;;;;5114481;28;20160;-59
2020/12/30 04:28:44;;;;;;;1.20;1.10;;;16.30;28.60;;;;;;5114245;28;20529;-59
2020/12/30 04:31:13;;;;;;;1.13;0.90;;;16.30;28.60;;;;;;5114630;28;20153;-59
2020/12/30 04:33:39;;;;;;;1.85;1.15;;;16.30;28.60;;;;;;5114250;28;20543;-59
2020/12/30 04:36:06;;;;;;;1.63;1.25;;;16.30;28.60;;;;;;5114141;28;20189;-59
2020/12/30 04:38:33;;;;;;;1.17;1.08;;;16.30;28.60;;;;;;5113892;28;20191;-59
2020/12/30 04:41:00;;;;;;;2.10;1.35;;;16.30;28.60;;;;;;5114355;28;20240;-59
2020/12/30 04:43:28;;;;;;;1.73;1.25;;;16.30;28.60;;;;;;5113808;28;20161;-59
2020/12/30 04:45:55;;;;;;;1.33;1.10;;;16.30;28.60;;;;;;5114491;28;20685;-59
2020/12/30 04:48:24;;;;;;;1.27;1.05;;;16.30;28.60;;;;;;5114237;28;20154;-59
2020/12/30 04:50:50;;;;;;;1.67;1.17;;;16.30;28.60;;;;;;5114005;28;20208;-60
2020/12/30 04:53:18;;;;;;;1.50;1.40;;;16.30;28.60;;;;;;5113853;28;20157;-60
2020/12/30 04:55:45;;;;;;;1.20;1.08;;;16.30;28.60;;;;;;5096353;28;20651;-59
2020/12/30 04:58:12;;;;;;;0.80;0.80;;;16.30;28.60;;;;;;5113816;28;20248;-60
2020/12/30 05:00:39;;;;;;;1.50;1.15;;;16.30;28.60;;;;;;5114432;28;20501;-60
2020/12/30 05:03:12;;;;;;;1.70;1.20;;;16.30;28.60;;;;;;5095841;28;20184;-60
2020/12/30 05:05:39;;;;;;;1.40;1.00;;;16.30;28.60;;;;;;5113914;28;20475;-59
2020/12/30 05:08:12;;;;;;;1.00;0.82;;;16.30;28.60;;;;;;5095327;28;20631;-59
2020/12/30 05:10:40;;;;;;;0.95;0.95;;;16.30;28.60;;;;;;5114278;28;20161;-58
2020/12/30 05:13:06;;;;;;;1.30;1.20;;;16.30;28.60;;;;;;5113625;28;20164;-59
2020/12/30 05:15:33;;;;;;;2.35;1.40;;;16.30;28.60;;;;;;5113823;28;20185;-59
2020/12/30 05:18:04;;;;;;;1.33;1.10;;;16.30;28.60;;;;;;5113985;28;20158;-59
2020/12/30 05:20:36;;;;;;;1.10;1.00;;;16.20;28.60;;;;;;5113728;28;20228;-59
2020/12/30 05:23:08;;;;;;;1.25;1.15;;;16.30;28.60;;;;;;5113678;28;20157;-59
2020/12/30 05:25:41;;;;;;;1.13;0.90;;;16.30;28.70;;;;;;5114000;28;20232;-59
2020/12/30 05:28:09;;;;;;;1.38;1.27;;;16.30;28.60;;;;;;5113668;28;20609;-59
2020/12/30 05:30:38;;;;;;;1.20;1.10;;;16.30;28.70;;;;;;5113804;28;20160;-60
2020/12/30 05:33:05;;;;;;;1.20;1.10;;;16.30;28.60;;;;;;5113961;28;20240;-59
2020/12/30 05:35:32;;;;;;;1.55;1.10;;;16.30;28.60;;;;;;5113491;28;20242;-59
2020/12/30 05:37:58;;;;;;;1.33;1.23;;;16.30;28.70;;;;;;5113695;28;20195;-59
2020/12/30 05:40:26;;;;;;;1.30;1.20;;;16.30;28.70;;;;;;5129587;28;20212;-60
2020/12/30 05:42:53;;;;;;;2.55;1.38;;;16.20;28.60;;;;;;5113602;28;20141;-59
2020/12/30 05:45:23;;;;;;;0.95;0.95;;;16.30;28.70;;;;;;5114021;28;20171;-60
2020/12/30 05:47:53;;;;;;;1.33;1.23;;;16.20;28.60;;;;;;5113852;28;20340;-59
2020/12/30 05:50:25;;;;;;;1.10;1.00;;;16.30;28.70;;;;;;5113372;28;20173;-60
2020/12/30 05:52:52;;;;;;;1.35;0.85;;;16.30;28.70;;;;;;5113367;28;20154;-60
2020/12/30 05:55:26;;;;;;;1.73;1.10;;;16.30;28.70;;;;;;5114037;28;20222;-60
2020/12/30 05:57:53;;;;;;;1.00;0.90;;;16.30;28.70;;;;;;5117367;28;20203;-59
2020/12/30 06:00:29;;;;;;;1.20;1.10;;;16.20;28.60;;;;;;5116837;28;20209;-60
2020/12/30 06:02:58;;;;;;;1.20;1.10;;;16.20;28.60;;;;;;5117256;28;20153;-59
2020/12/30 06:05:28;;;;;;;1.40;1.30;;;16.30;28.70;;;;;;5117119;28;20240;-60
2020/12/30 06:07:55;;;;;;;1.63;1.42;;;16.20;28.60;;;;;;5116534;28;20576;-60
2020/12/30 06:10:23;;;;;;;1.30;1.20;;;16.20;28.60;;;;;;5116815;28;20164;-60
2020/12/30 06:12:52;;;;;;;1.30;1.20;;;16.20;28.60;;;;;;5117017;28;20157;-60
2020/12/30 06:15:26;;;;;;;1.30;0.93;;;16.20;28.60;;;;;;5116791;28;20536;-60
2020/12/30 06:17:58;;;;;;;1.23;1.13;;;16.20;28.60;;;;;;5116805;28;20149;-60
2020/12/30 06:20:37;;;;;;;1.25;1.15;;;16.20;28.60;;;;;;5116882;28;20161;-59
2020/12/30 06:23:05;;;;;;;1.30;1.20;;;16.20;28.60;;;;;;5116174;28;20236;-60
2020/12/30 06:25:32;;;;;;;1.65;1.40;;;16.20;28.60;;;;;;5116691;28;20240;-60
2020/12/30 06:28:11;;;;;;;1.20;1.10;;;16.20;28.60;;;;;;5098585;28;20196;-60
2020/12/30 06:30:38;;;;;;;1.30;1.20;;;16.20;28.60;;;;;;5116484;28;20157;-60
2020/12/30 06:33:05;;;;;;;1.30;0.98;;;16.20;28.60;;;;;;5098306;28;20645;-60
2020/12/30 06:35:32;;;;;;;1.33;1.23;;;16.20;28.60;;;;;;5132331;27;20208;-60
2020/12/30 06:38:15;;;;;;;1.10;1.00;;;16.20;28.60;;;;;;5116227;28;20163;-59
2020/12/30 06:40:55;;;;;;;1.20;1.00;;;16.20;28.60;;;;;;5116335;28;20603;-60
2020/12/30 06:43:39;;;;;;;1.25;1.00;;;16.20;28.60;;;;;;5116305;28;20153;-59
2020/12/30 06:46:05;;;;;;;0.82;0.82;;;16.30;28.70;;;;;;5116398;28;20206;-60
2020/12/30 06:48:50;;;;;;;0.80;0.80;;;16.20;28.60;;;;;;5097975;28;20176;-60
2020/12/30 06:51:17;;;;;;;1.55;1.40;;;16.20;28.60;;;;;;5116094;28;20202;-60
2020/12/30 06:53:49;;;;;;;2.35;1.67;;;16.20;28.60;;;;;;5114227;28;20187;-60
2020/12/30 06:56:15;;;;;;;1.40;1.23;;;16.20;28.60;;;;;;5115898;28;20181;-60
2020/12/30 06:58:46;;;;;;;1.05;0.95;;;16.20;28.60;;;;;;5116099;28;20224;-59
2020/12/30 07:01:17;;;;;;;1.45;1.10;;;16.20;28.60;;;;;;5116099;28;20236;-59
2020/12/30 07:03:44;;;;;;;1.85;1.02;;;16.20;28.60;;;;;;5115732;28;20149;-59
2020/12/30 07:06:28;;;;;;;0.90;0.85;;;16.20;28.60;;;;;;5115878;28;20280;-61
2020/12/30 07:08:57;;;;;;;1.02;0.95;;;16.20;28.50;;;;;;5131128;27;20175;-60
2020/12/30 07:11:38;;;;;;;1.50;1.05;;;16.20;28.50;;;;;;5115910;28;20161;-60
2020/12/30 07:14:11;;;;;;;0.80;0.80;;;16.20;28.50;;;;;;5097585;28;20185;-60
2020/12/30 07:16:38;;;;;;;1.00;0.90;;;16.20;28.50;;;;;;5115528;28;20187;-60
2020/12/30 07:19:15;;;;;;;1.20;0.95;;;16.20;28.50;;;;;;5097104;28;20173;-60
2020/12/30 07:21:54;;;;;;;1.23;1.10;;;16.20;29.10;;;;;;5115873;28;20171;-61
2020/12/30 07:24:46;;;;;;;1.13;1.02;;;16.20;28.50;;;;;;5115229;28;20164;-60
2020/12/30 07:27:15;;;;;;;1.27;1.10;;;16.20;28.50;;;;;;5104290;28;20750;-60
2020/12/30 07:29:44;;;;;;;0.90;0.80;;;16.20;28.50;;;;;;5115279;28;20248;-60
2020/12/30 07:32:12;;;;;;;0.93;0.90;;;16.20;28.50;;;;;;5115215;28;20157;-61
2020/12/30 07:34:45;;;;;;;1.00;0.90;;;16.20;28.50;;;;;;5115268;28;20269;-60
2020/12/30 07:37:13;;;;;;;1.80;0.85;;;16.20;28.50;;;;;;5114501;28;20183;-60
2020/12/30 07:39:46;;;;;;;1.35;1.00;;;16.20;28.50;;;;;;5115293;28;20535;-60
2020/12/30 07:42:14;;;;;;;1.20;1.10;;;16.20;28.50;;;;;;5114942;28;20722;-60
2020/12/30 07:44:47;;;;;;;2.08;1.02;;;16.20;29.00;;;;;;5096982;28;20647;-60
2020/12/30 07:47:14;;;;;;;1.58;1.08;;;16.30;28.50;;;;;;5115281;28;20160;-60
2020/12/30 07:49:40;;;;;;;1.00;0.90;;;16.30;28.50;;;;;;5114898;28;20248;-60
2020/12/30 07:52:06;;;;;;;1.20;1.10;;;16.30;28.50;;;;;;5114320;28;20157;-60
2020/12/30 07:54:32;;;;;;;1.60;1.50;;;16.30;28.40;;;;;;5115026;28;20443;-60
2020/12/30 07:57:01;;;;;;;1.20;1.05;;;16.30;28.40;;;;;;5114645;28;20176;-60
2020/12/30 07:59:27;;;;;;;1.40;1.20;;;16.30;28.30;;;;;;5114593;28;20209;-60
2020/12/30 08:01:57;;;;;;;1.07;1.00;;;16.30;28.40;;;;;;5114859;28;20199;-60
2020/12/30 08:04:24;;;;;;;1.42;1.30;;;16.30;28.40;;;;;;5114559;28;20427;-60
2020/12/30 08:06:52;;;;;;;1.17;1.00;;;16.30;28.30;;;;;;5114639;28;20200;-59
2020/12/30 08:09:19;;;;;;;1.10;1.00;;;16.30;28.30;;;;;;5114132;28;20153;-60
2020/12/30 08:11:56;;;;;;;1.38;1.20;;;16.30;28.30;;;;;;5114584;28;20237;-59
2020/12/30 08:14:24;;;;;;;0.85;0.85;;;16.30;28.30;;;;;;5114574;28;20584;-60
2020/12/30 08:17:07;;;;;;;1.27;1.05;;;16.30;28.30;;;;;;5114857;28;20220;-59
2020/12/30 08:19:40;;;;;;;1.30;1.20;;;16.30;28.80;;;;;;5113924;28;20153;-60
2020/12/30 08:22:24;;;;;;;1.05;0.93;;;16.40;28.20;;;;;;5114006;28;20145;-60
2020/12/30 08:24:52;;;;;;;1.38;1.20;;;16.40;28.10;;;;;;5097592;28;20236;-60
2020/12/30 08:27:20;;;;;;;2.10;1.00;;;16.40;28.10;;;;;;5114132;28;20177;-60
2020/12/30 08:29:46;;;;;;;1.30;1.20;;;16.40;28.00;;;;;;5114575;28;20153;-60
2020/12/30 08:32:17;;;;;;;1.35;1.20;;;16.40;28.00;;;;;;5114190;28;20256;-60
2020/12/30 08:34:57;;;;;;;1.38;1.20;;;16.50;28.00;;;;;;5095844;28;20173;-60
2020/12/30 08:37:29;;;;;;;1.10;1.00;;;16.50;28.00;;;;;;5095487;28;20172;-60
2020/12/30 08:40:04;;;;;;;1.10;1.00;;;16.50;28.00;;;;;;5114580;28;20188;-60
2020/12/30 08:42:54;;;;;;;1.60;1.10;;;16.50;27.90;;;;;;5114117;28;20169;-60
2020/12/30 08:45:27;;;;;;;1.15;0.98;;;16.50;27.80;;;;;;5114117;28;20218;-60
2020/12/30 08:47:55;;;;;;;1.83;0.93;;;16.50;27.80;;;;;;5113753;28;20223;-61
2020/12/30 08:50:23;;;;;;;1.13;0.98;;;16.50;27.80;;;;;;5113704;28;20181;-60
2020/12/30 08:52:50;;;;;;;1.13;1.02;;;16.50;27.80;;;;;;5113735;28;20187;-60
2020/12/30 08:55:16;;;;;;;1.58;1.20;;;16.60;28.30;;;;;;5113910;28;20185;-61
2020/12/30 08:57:48;;;;;;;2.57;1.30;;;16.50;27.30;;;;;;5113710;28;20167;-60
2020/12/30 09:00:22;;;;;;;1.10;1.00;;;16.60;27.80;;;;;;5113724;28;20462;-61
2020/12/30 09:02:53;;;;;;;1.55;1.27;;;16.60;27.80;;;;;;5113714;28;20244;-60
2020/12/30 09:05:31;;;;;;;1.40;0.90;;;16.60;27.70;;;;;;5113839;28;20181;-60
2020/12/30 09:08:22;;;;;;;1.10;1.00;;;16.50;27.70;;;;;;5113403;28;20608;-60
2020/12/30 09:10:48;;;;;;;2.00;0.98;;;16.60;27.70;;;;;;5113652;28;20175;-60
2020/12/30 09:13:16;;;;;;;1.20;1.10;;;16.60;27.70;;;;;;5113756;28;20157;-60
2020/12/30 09:15:43;;;;;;;1.50;1.30;;;16.60;27.70;;;;;;5113676;28;20195;-60
2020/12/30 09:18:13;;;;;;;1.75;1.15;;;16.50;27.70;;;;;;5113591;28;20198;-60
2020/12/30 09:20:40;;;;;;;1.10;0.90;;;16.60;27.70;;;;;;5113583;28;20248;-60
2020/12/30 09:23:07;;;;;;;1.17;0.98;;;16.50;27.60;;;;;;5113097;28;20634;-61
2020/12/30 09:25:35;;;;;;;2.00;1.27;;;16.60;27.70;;;;;;5113576;28;20184;-59
2020/12/30 09:28:02;;;;;;;1.23;1.02;;;16.60;27.70;;;;;;5113508;28;20191;-60
2020/12/30 09:30:33;;;;;;;1.10;0.80;;;16.60;27.60;;;;;;5114588;28;20192;-60
2020/12/30 09:33:12;;;;;;;1.02;0.93;;;16.60;27.60;;;;;;5117230;28;20157;-59
2020/12/30 09:35:38;;;;;;;1.95;1.17;;;16.60;28.10;;;;;;5117324;28;20275;-60
2020/12/30 09:38:04;;;;;;;1.37;1.00;;;16.60;27.60;;;;;;5098511;28;20226;-60
2020/12/30 09:40:30;;;;;;;1.50;1.03;;;16.60;27.50;;;;;;5117278;28;20933;-60
2020/12/30 09:43:13;;;;;;;1.30;1.13;;;16.60;27.50;;;;;;5117585;28;20238;-60
2020/12/30 09:45:39;;;;;;;2.75;1.00;;;16.60;27.50;;;;;;5117469;28;20160;-61
2020/12/30 09:48:23;;;;;;;1.30;1.20;;;16.60;27.50;;;;;;5117254;28;20161;-61
2020/12/30 09:50:50;;;;;;;1.77;1.30;;;16.60;27.50;;;;;;5117534;28;20197;-59
2020/12/30 09:53:17;;;;;;;1.55;1.00;;;16.60;27.50;;;;;;5116662;28;20154;-60
2020/12/30 09:55:44;;;;;;;1.10;1.00;;;16.60;27.50;;;;;;5117109;28;20192;-59
2020/12/30 09:58:09;;;;;;;1.40;1.30;;;16.60;27.50;;;;;;5116928;28;20203;-60
2020/12/30 10:00:35;;;;;;;0.87;0.77;;;16.60;27.50;;;;;;5117014;28;20589;-60
2020/12/30 10:03:01;;;;;;;0.90;0.80;;;16.60;27.50;;;;;;5116766;28;20562;-59
2020/12/30 10:05:26;;;;;;;1.60;1.10;;;16.60;27.50;;;;;;5116803;28;20206;-59
2020/12/30 10:07:52;;;;;;;2.13;1.93;;;16.60;27.50;;;;;;5081327;28;20661;-60
2020/12/30 10:10:18;;;;;;;1.37;1.27;;;16.60;27.40;;;;;;5116900;28;20153;-60
2020/12/30 10:12:43;;;;;;;2.07;0.80;;;16.60;27.40;;;;;;5116681;28;20157;-60
2020/12/30 10:15:11;;;;;;;1.10;0.97;;;16.70;27.50;;;;;;5116940;28;20173;-60
2020/12/30 10:17:38;;;;;;;0.98;0.90;;;16.60;27.40;;;;;;5116684;28;20150;-60
2020/12/30 10:20:06;;;;;;;1.42;1.10;;;16.60;27.40;;;;;;5098521;28;20157;-60
2020/12/30 10:22:32;;;;;;;2.25;1.17;;;16.60;27.40;;;;;;5116045;28;20181;-60
2020/12/30 10:24:58;;;;;;;1.80;1.10;;;16.60;27.40;;;;;;5116573;28;20191;-60
2020/12/30 10:27:24;;;;;;;1.35;1.13;;;16.70;27.40;;;;;;5116415;28;20145;-60
2020/12/30 10:29:53;;;;;;;1.30;1.20;;;16.70;27.40;;;;;;5116552;28;20154;-60
2020/12/30 10:32:20;;;;;;;1.00;0.90;;;16.70;27.40;;;;;;5116172;28;20200;-60
2020/12/30 10:34:45;;;;;;;0.80;0.60;;;16.70;27.30;;;;;;5116485;28;20157;-60
2020/12/30 10:37:11;;;;;;;1.87;1.00;;;16.70;27.30;;;;;;5115570;28;20695;-60
2020/12/30 10:39:37;;;;;;;1.10;0.90;;;16.70;27.20;;;;;;5116299;28;20691;-60
2020/12/30 10:42:03;;;;;;;1.40;1.10;;;16.80;27.30;;;;;;5116115;28;20666;-60
2020/12/30 10:44:29;;;;;;;0.98;0.90;;;16.80;27.20;;;;;;5116409;28;20472;-60
2020/12/30 10:46:55;;;;;;;1.00;0.80;;;16.80;27.70;;;;;;5098024;28;20165;-60
2020/12/30 10:49:23;;;;;;;1.00;0.90;;;16.80;27.00;;;;;;5116291;28;20177;-60
2020/12/30 10:51:50;;;;;;;1.30;1.20;;;16.90;27.10;;;;;;5116004;28;20157;-60
2020/12/30 10:54:17;;;;;;;1.40;1.23;;;16.90;27.00;;;;;;5097578;28;20169;-60
2020/12/30 10:56:54;;;;;;;1.10;1.00;;;16.90;27.00;;;;;;5116006;28;20222;-60
2020/12/30 10:59:21;;;;;;;1.33;1.20;;;16.90;26.90;;;;;;5115944;28;20294;-60
2020/12/30 11:01:51;;;;;;;1.13;1.02;;;17.00;26.90;;;;;;5116004;28;20153;-61
2020/12/30 11:04:17;;;;;;;1.17;0.85;;;17.00;26.80;;;;;;5116144;28;20157;-61
2020/12/30 11:06:43;;;;;;;1.10;1.00;;;17.00;26.80;;;;;;5115617;28;20636;-61
2020/12/30 11:09:08;;;;;;;1.03;0.93;;;17.00;26.70;;;;;;5115371;28;20402;-64
2020/12/30 11:11:35;;;;;;;1.23;1.13;;;17.00;26.60;;;;;;5115459;28;20158;-60
2020/12/30 11:14:01;;;;;;;1.50;0.93;;;17.00;26.60;;;;;;5097154;28;20234;-60
2020/12/30 11:16:28;;;;;;;1.25;1.00;;;17.00;26.60;;;;;;5115551;28;20276;-61
2020/12/30 11:18:54;;;;;;;1.35;1.23;;;17.10;26.60;;;;;;5115772;28;20161;-61
2020/12/30 11:21:23;;;;;;;1.15;1.05;;;17.10;26.60;;;;;;5115300;28;20181;-61
2020/12/30 11:23:48;;;;;;;1.35;1.05;;;17.10;26.50;;;;;;5114720;28;20649;-60
2020/12/30 11:26:14;;;;;;;1.20;1.10;;;17.10;27.00;;;;;;5097274;28;20235;-60
2020/12/30 11:28:40;;;;;;;1.10;1.00;;;17.10;26.40;;;;;;5115122;28;20165;-60
2020/12/30 11:31:07;;;;;;;1.60;0.97;;;17.20;26.30;;;;;;5115114;28;20195;-60
2020/12/30 11:33:33;;;;;;;1.30;1.20;;;17.20;26.20;;;;;;5115078;28;20153;-60
2020/12/30 11:35:58;;;;;;;4.13;1.40;;;17.20;26.20;;;;;;5115159;28;20644;-60
2020/12/30 11:38:24;;;;;;;1.20;1.00;;;17.20;26.20;;;;;;5114680;28;20423;-64
2020/12/30 11:40:50;;;;;;;1.73;1.10;;;17.30;26.20;;;;;;5115129;28;20565;-61
2020/12/30 11:43:16;;;;;;;1.33;0.93;;;17.30;26.20;;;;;;5114827;28;20509;-61
2020/12/30 11:45:41;;;;;;;1.70;1.20;;;17.30;26.30;;;;;;5114770;28;20152;-61
2020/12/30 11:48:07;;;;;;;1.10;0.80;;;17.30;26.20;;;;;;5096525;28;20269;-61
2020/12/30 11:50:34;;;;;;;0.97;0.87;;;17.30;26.20;;;;;;5114509;28;20245;-61
2020/12/30 11:53:00;;;;;;;1.30;1.20;;;17.30;26.20;;;;;;5113323;28;20834;-61
2020/12/30 11:55:27;;;;;;;1.15;1.05;;;17.30;26.20;;;;;;5114755;28;20181;-61
2020/12/30 11:57:52;;;;;;;1.30;0.93;;;17.30;26.20;;;;;;5114722;28;20175;-60
2020/12/30 12:00:19;;;;;;;1.53;1.43;;;17.30;26.20;;;;;;5114546;28;20706;-61
2020/12/30 12:02:45;;;;;;;1.42;1.00;;;17.30;26.20;;;;;;5130655;27;20175;-61
2020/12/30 12:05:12;;;;;;;1.25;0.90;;;17.30;26.20;;;;;;5115225;28;20149;-61
2020/12/30 12:07:39;;;;;;;0.93;0.90;;;17.30;26.20;;;;;;5114423;28;20194;-61
2020/12/30 12:10:06;;;;;;;1.05;0.93;;;17.30;26.20;;;;;;5114657;28;20152;-60
2020/12/30 12:12:31;;;;;;;1.30;1.08;;;17.30;26.20;;;;;;5114302;28;20150;-60
2020/12/30 12:14:57;;;;;;;1.43;1.10;;;17.30;26.20;;;;;;5096429;28;20179;-61
2020/12/30 12:17:23;;;;;;;1.40;1.10;;;17.30;26.20;;;;;;5079286;28;20273;-61
2020/12/30 12:19:49;;;;;;;0.90;0.90;;;17.30;26.30;;;;;;5096159;28;20510;-61
2020/12/30 12:22:15;;;;;;;0.80;0.80;;;17.30;26.20;;;;;;5114083;28;20161;-59
2020/12/30 12:24:41;;;;;;;1.70;1.35;;;17.30;26.30;;;;;;5114709;28;20159;-60
2020/12/30 12:27:07;;;;;;;1.17;1.07;;;17.30;26.30;;;;;;5096004;28;20196;-60
2020/12/30 12:29:35;;;;;;;2.13;1.30;;;17.30;26.20;;;;;;5114118;28;20564;-61
2020/12/30 12:32:06;;;;;;;1.50;1.10;;;17.30;26.20;;;;;;5114284;28;20403;-61
2020/12/30 12:34:38;;;;;;;1.05;0.95;;;17.30;26.20;;;;;;5114311;28;20650;-61
2020/12/30 12:37:05;;;;;;;1.00;0.90;;;17.30;26.20;;;;;;5113626;28;20173;-60
2020/12/30 12:39:33;;;;;;;1.13;1.05;;;17.30;26.20;;;;;;5114698;28;20659;-60
2020/12/30 12:41:58;;;;;;;1.33;1.23;;;17.30;26.20;;;;;;5114166;28;20180;-60
2020/12/30 12:44:24;;;;;;;1.07;0.90;;;17.30;26.20;;;;;;5114266;28;20157;-60
2020/12/30 12:46:53;;;;;;;0.90;0.90;;;17.30;26.20;;;;;;5114014;28;20160;-61
2020/12/30 12:49:18;;;;;;;1.35;1.00;;;17.30;26.30;;;;;;5113995;28;20173;-62
2020/12/30 12:51:49;;;;;;;0.77;0.70;;;17.30;26.20;;;;;;5113947;28;20184;-61
2020/12/30 12:54:15;;;;;;;1.13;1.02;;;17.30;26.20;;;;;;5113499;28;20164;-61